sensor_id;sensor_type;location;lat;lon;timestamp;pressure;altitude;pressure_sealevel;temperature;humidity
55373;BME280;41249;47.838;16.490;2022-12-10T00:01:07;97894.25;;;-1.93;83.54
55373;BME280;41249;47.838;16.490;2022-12-10T00:03:35;97888.13;;;-1.90;83.42
55373;BME280;41249;47.838;16.490;2022-12-10T00:06:03;97894.72;;;-1.91;82.98
55373;BME280;41249;47.838;16.490;2022-12-10T00:08:38;97885.41;;;-1.90;83.05
55373;BME280;41249;47.838;16.490;2022-12-10T00:11:06;97912.53;;;-1.94;82.63
55373;BME280;41249;47.838;16.490;2022-12-10T00:13:34;97911.91;;;-1.87;82.66
55373;BME280;41249;47.838;16.490;2022-12-10T00:16:03;97909.09;;;-1.91;82.32
55373;BME280;41249;47.838;16.490;2022-12-10T00:18:30;97921.13;;;-1.92;82.52
55373;BME280;41249;47.838;16.490;2022-12-10T00:20:57;97910.16;;;-1.95;82.34
55373;BME280;41249;47.838;16.490;2022-12-10T00:23:24;97907.00;;;-1.97;82.07
55373;BME280;41249;47.838;16.490;2022-12-10T00:25:50;97909.53;;;-2.04;82.30
55373;BME280;41249;47.838;16.490;2022-12-10T00:28:17;97921.63;;;-2.02;82.22
55373;BME280;41249;47.838;16.490;2022-12-10T00:30:43;97914.78;;;-1.96;82.49
55373;BME280;41249;47.838;16.490;2022-12-10T00:33:10;97913.91;;;-2.00;82.13
55373;BME280;41249;47.838;16.490;2022-12-10T00:35:37;97914.72;;;-1.99;82.36
55373;BME280;41249;47.838;16.490;2022-12-10T00:38:04;97914.88;;;-1.92;82.51
55373;BME280;41249;47.838;16.490;2022-12-10T00:40:30;97905.25;;;-1.90;81.99
55373;BME280;41249;47.838;16.490;2022-12-10T00:42:57;97918.47;;;-1.88;82.28
55373;BME280;41249;47.838;16.490;2022-12-10T00:45:23;97930.78;;;-1.94;81.78
55373;BME280;41249;47.838;16.490;2022-12-10T00:47:50;97907.16;;;-1.90;81.77
55373;BME280;41249;47.838;16.490;2022-12-10T00:50:17;97918.03;;;-1.90;82.36
55373;BME280;41249;47.838;16.490;2022-12-10T00:52:43;97911.91;;;-1.87;82.13
55373;BME280;41249;47.838;16.490;2022-12-10T00:55:10;97924.53;;;-1.95;81.37
55373;BME280;41249;47.838;16.490;2022-12-10T00:57:36;97935.25;;;-1.86;81.80
55373;BME280;41249;47.838;16.490;2022-12-10T01:00:04;97923.50;;;-1.90;81.78
55373;BME280;41249;47.838;16.490;2022-12-10T01:02:31;97940.25;;;-1.88;81.00
55373;BME280;41249;47.838;16.490;2022-12-10T01:04:57;97936.66;;;-1.92;81.32
55373;BME280;41249;47.838;16.490;2022-12-10T01:07:24;97933.13;;;-1.93;81.59
55373;BME280;41249;47.838;16.490;2022-12-10T01:09:51;97939.81;;;-1.90;81.61
55373;BME280;41249;47.838;16.490;2022-12-10T01:12:17;97946.84;;;-1.89;81.41
55373;BME280;41249;47.838;16.490;2022-12-10T01:14:44;97946.66;;;-1.96;81.25
55373;BME280;41249;47.838;16.490;2022-12-10T01:17:10;97949.38;;;-1.96;81.21
55373;BME280;41249;47.838;16.490;2022-12-10T01:19:38;97959.19;;;-1.92;81.35
55373;BME280;41249;47.838;16.490;2022-12-10T01:22:04;97974.72;;;-1.92;80.54
55373;BME280;41249;47.838;16.490;2022-12-10T01:24:31;97957.53;;;-1.96;81.08
55373;BME280;41249;47.838;16.490;2022-12-10T01:26:58;97962.06;;;-2.00;81.36
55373;BME280;41249;47.838;16.490;2022-12-10T01:29:25;97950.50;;;-1.97;81.47
55373;BME280;41249;47.838;16.490;2022-12-10T01:31:55;97965.47;;;-2.03;81.60
55373;BME280;41249;47.838;16.490;2022-12-10T01:34:23;97963.81;;;-2.08;81.46
55373;BME280;41249;47.838;16.490;2022-12-10T01:36:52;97978.88;;;-2.10;81.46
55373;BME280;41249;47.838;16.490;2022-12-10T01:39:21;97964.16;;;-2.09;81.56
55373;BME280;41249;47.838;16.490;2022-12-10T01:41:56;97975.91;;;-2.05;81.50
55373;BME280;41249;47.838;16.490;2022-12-10T01:46:52;97960.19;;;-2.12;82.17
55373;BME280;41249;47.838;16.490;2022-12-10T01:49:25;97962.47;;;-2.14;82.57
55373;BME280;41249;47.838;16.490;2022-12-10T01:51:55;97951.69;;;-2.10;81.80
55373;BME280;41249;47.838;16.490;2022-12-10T01:54:28;97954.66;;;-2.15;82.14
55373;BME280;41249;47.838;16.490;2022-12-10T01:59:27;97977.56;;;-2.16;82.96
55373;BME280;41249;47.838;16.490;2022-12-10T02:05:09;98017.72;;;-2.10;83.31
55373;BME280;41249;47.838;16.490;2022-12-10T02:15:41;98016.69;;;-2.05;81.44
55373;BME280;41249;47.838;16.490;2022-12-10T02:18:14;98012.66;;;-2.11;81.78
55373;BME280;41249;47.838;16.490;2022-12-10T02:20:48;98013.78;;;-2.12;81.79
55373;BME280;41249;47.838;16.490;2022-12-10T02:23:44;98016.13;;;-2.11;81.75
55373;BME280;41249;47.838;16.490;2022-12-10T02:26:36;98026.25;;;-2.11;81.52
55373;BME280;41249;47.838;16.490;2022-12-10T02:32:17;98004.69;;;-2.04;81.78
55373;BME280;41249;47.838;16.490;2022-12-10T02:34:47;98030.28;;;-2.05;81.47
55373;BME280;41249;47.838;16.490;2022-12-10T02:37:18;98042.03;;;-1.89;82.32
55373;BME280;41249;47.838;16.490;2022-12-10T02:39:49;98044.63;;;-1.93;81.69
55373;BME280;41249;47.838;16.490;2022-12-10T02:42:18;98043.59;;;-1.88;81.80
55373;BME280;41249;47.838;16.490;2022-12-10T02:44:46;98044.19;;;-1.95;79.81
55373;BME280;41249;47.838;16.490;2022-12-10T02:47:16;98047.59;;;-1.98;80.77
55373;BME280;41249;47.838;16.490;2022-12-10T02:49:47;98050.63;;;-1.87;80.85
55373;BME280;41249;47.838;16.490;2022-12-10T02:52:18;98049.63;;;-1.95;79.84
55373;BME280;41249;47.838;16.490;2022-12-10T02:54:47;98052.34;;;-1.95;80.22
55373;BME280;41249;47.838;16.490;2022-12-10T03:02:59;98015.22;;;-2.03;79.67
55373;BME280;41249;47.838;16.490;2022-12-10T03:08:23;98013.09;;;-2.09;79.95
55373;BME280;41249;47.838;16.490;2022-12-10T03:10:54;98027.13;;;-2.07;80.61
55373;BME280;41249;47.838;16.490;2022-12-10T03:13:29;98030.41;;;-2.02;80.15
55373;BME280;41249;47.838;16.490;2022-12-10T03:15:57;98034.13;;;-1.94;80.82
55373;BME280;41249;47.838;16.490;2022-12-10T03:18:25;98039.13;;;-1.96;79.58
55373;BME280;41249;47.838;16.490;2022-12-10T03:20:57;98036.53;;;-2.05;79.58
55373;BME280;41249;47.838;16.490;2022-12-10T03:23:26;98026.69;;;-2.09;79.89
55373;BME280;41249;47.838;16.490;2022-12-10T03:25:55;98022.13;;;-2.05;79.67
55373;BME280;41249;47.838;16.490;2022-12-10T03:28:22;98017.72;;;-2.10;79.95
55373;BME280;41249;47.838;16.490;2022-12-10T03:30:50;98014.13;;;-2.14;79.87
55373;BME280;41249;47.838;16.490;2022-12-10T03:33:18;98000.44;;;-2.17;80.07
55373;BME280;41249;47.838;16.490;2022-12-10T03:35:45;98018.22;;;-2.20;80.01
55373;BME280;41249;47.838;16.490;2022-12-10T03:38:12;98022.63;;;-2.15;80.47
55373;BME280;41249;47.838;16.490;2022-12-10T03:40:40;98032.81;;;-2.12;80.95
55373;BME280;41249;47.838;16.490;2022-12-10T03:43:07;98041.09;;;-2.09;80.75
55373;BME280;41249;47.838;16.490;2022-12-10T03:45:33;98059.06;;;-2.04;81.70
55373;BME280;41249;47.838;16.490;2022-12-10T03:48:00;98062.34;;;-1.99;81.98
55373;BME280;41249;47.838;16.490;2022-12-10T03:50:26;98067.66;;;-2.02;81.21
55373;BME280;41249;47.838;16.490;2022-12-10T03:52:53;98058.38;;;-2.01;81.78
55373;BME280;41249;47.838;16.490;2022-12-10T03:55:20;98061.69;;;-2.08;81.29
55373;BME280;41249;47.838;16.490;2022-12-10T03:57:46;98061.34;;;-2.06;81.89
55373;BME280;41249;47.838;16.490;2022-12-10T04:00:14;98070.63;;;-2.07;81.17
55373;BME280;41249;47.838;16.490;2022-12-10T04:02:41;98065.56;;;-2.09;81.42
55373;BME280;41249;47.838;16.490;2022-12-10T04:05:08;98069.84;;;-2.08;81.75
55373;BME280;41249;47.838;16.490;2022-12-10T04:07:35;98080.81;;;-2.04;81.49
55373;BME280;41249;47.838;16.490;2022-12-10T04:10:02;98083.31;;;-1.99;81.25
55373;BME280;41249;47.838;16.490;2022-12-10T04:12:29;98085.66;;;-1.98;81.57
55373;BME280;41249;47.838;16.490;2022-12-10T04:14:56;98089.19;;;-1.97;81.56
55373;BME280;41249;47.838;16.490;2022-12-10T04:17:41;98092.25;;;-1.99;81.14
55373;BME280;41249;47.838;16.490;2022-12-10T04:20:08;98092.59;;;-2.00;81.35
55373;BME280;41249;47.838;16.490;2022-12-10T04:22:54;98083.50;;;-1.92;81.91
55373;BME280;41249;47.838;16.490;2022-12-10T04:25:40;98087.25;;;-1.97;81.15
55373;BME280;41249;47.838;16.490;2022-12-10T04:28:25;98072.22;;;-2.06;80.79
55373;BME280;41249;47.838;16.490;2022-12-10T04:30:52;98070.84;;;-2.00;80.95
55373;BME280;41249;47.838;16.490;2022-12-10T04:33:19;98062.03;;;-2.09;80.52
55373;BME280;41249;47.838;16.490;2022-12-10T04:35:45;98066.22;;;-2.12;80.30
55373;BME280;41249;47.838;16.490;2022-12-10T04:38:12;98058.16;;;-2.08;80.70
55373;BME280;41249;47.838;16.490;2022-12-10T04:40:39;98059.75;;;-2.07;81.22
55373;BME280;41249;47.838;16.490;2022-12-10T04:43:05;98066.66;;;-2.10;80.60
55373;BME280;41249;47.838;16.490;2022-12-10T04:45:34;98067.22;;;-2.04;81.05
55373;BME280;41249;47.838;16.490;2022-12-10T04:48:01;98068.84;;;-2.15;80.70
55373;BME280;41249;47.838;16.490;2022-12-10T04:50:27;98061.34;;;-2.18;80.43
55373;BME280;41249;47.838;16.490;2022-12-10T04:52:54;98051.72;;;-2.16;80.65
55373;BME280;41249;47.838;16.490;2022-12-10T04:55:21;98051.41;;;-2.14;80.15
55373;BME280;41249;47.838;16.490;2022-12-10T04:57:48;98051.63;;;-2.19;80.90
55373;BME280;41249;47.838;16.490;2022-12-10T05:00:14;98055.84;;;-2.22;80.81
55373;BME280;41249;47.838;16.490;2022-12-10T05:02:41;98056.19;;;-2.23;80.45
55373;BME280;41249;47.838;16.490;2022-12-10T05:05:08;98061.47;;;-2.15;80.46
55373;BME280;41249;47.838;16.490;2022-12-10T05:07:34;98062.72;;;-2.12;80.81
55373;BME280;41249;47.838;16.490;2022-12-10T05:10:01;98059.50;;;-2.02;81.15
55373;BME280;41249;47.838;16.490;2022-12-10T05:12:27;98061.31;;;-1.94;80.73
55373;BME280;41249;47.838;16.490;2022-12-10T05:14:54;98065.50;;;-1.97;80.90
55373;BME280;41249;47.838;16.490;2022-12-10T05:17:20;98073.72;;;-2.09;80.37
55373;BME280;41249;47.838;16.490;2022-12-10T05:19:47;98088.75;;;-1.99;80.95
55373;BME280;41249;47.838;16.490;2022-12-10T05:22:14;98087.25;;;-1.97;81.23
55373;BME280;41249;47.838;16.490;2022-12-10T05:24:59;98090.78;;;-1.96;81.03
55373;BME280;41249;47.838;16.490;2022-12-10T05:27:31;98083.38;;;-1.96;80.44
55373;BME280;41249;47.838;16.490;2022-12-10T05:29:58;98080.78;;;-1.92;80.97
55373;BME280;41249;47.838;16.490;2022-12-10T05:32:24;98085.59;;;-2.01;80.62
55373;BME280;41249;47.838;16.490;2022-12-10T05:34:51;98091.69;;;-2.04;80.88
55373;BME280;41249;47.838;16.490;2022-12-10T05:37:17;98097.53;;;-1.90;81.69
55373;BME280;41249;47.838;16.490;2022-12-10T05:39:44;98107.13;;;-1.81;82.22
55373;BME280;41249;47.838;16.490;2022-12-10T05:42:11;98105.78;;;-1.75;82.19
55373;BME280;41249;47.838;16.490;2022-12-10T05:44:37;98114.28;;;-1.76;82.43
55373;BME280;41249;47.838;16.490;2022-12-10T05:47:04;98115.91;;;-1.87;81.65
55373;BME280;41249;47.838;16.490;2022-12-10T05:49:30;98130.38;;;-1.83;81.65
55373;BME280;41249;47.838;16.490;2022-12-10T05:51:57;98128.16;;;-2.05;79.61
55373;BME280;41249;47.838;16.490;2022-12-10T05:54:24;98133.97;;;-2.07;80.70
55373;BME280;41249;47.838;16.490;2022-12-10T05:56:50;98125.59;;;-2.14;80.21
55373;BME280;41249;47.838;16.490;2022-12-10T05:59:17;98129.78;;;-2.04;80.72
55373;BME280;41249;47.838;16.490;2022-12-10T06:01:44;98133.72;;;-2.02;81.10
55373;BME280;41249;47.838;16.490;2022-12-10T06:04:11;98136.00;;;-2.04;80.13
55373;BME280;41249;47.838;16.490;2022-12-10T06:06:39;98137.25;;;-2.13;80.94
55373;BME280;41249;47.838;16.490;2022-12-10T06:09:07;98144.41;;;-2.09;81.35
55373;BME280;41249;47.838;16.490;2022-12-10T06:11:37;98149.47;;;-2.07;80.71
55373;BME280;41249;47.838;16.490;2022-12-10T06:14:03;98144.97;;;-2.15;80.18
55373;BME280;41249;47.838;16.490;2022-12-10T06:16:30;98148.34;;;-2.18;80.16
55373;BME280;41249;47.838;16.490;2022-12-10T06:18:57;98141.78;;;-2.17;80.71
55373;BME280;41249;47.838;16.490;2022-12-10T06:21:24;98146.75;;;-2.07;80.17
55373;BME280;41249;47.838;16.490;2022-12-10T06:23:52;98147.31;;;-2.02;80.27
55373;BME280;41249;47.838;16.490;2022-12-10T06:26:22;98160.00;;;-2.06;80.25
55373;BME280;41249;47.838;16.490;2022-12-10T06:28:49;98162.19;;;-2.11;80.17
55373;BME280;41249;47.838;16.490;2022-12-10T06:31:17;98167.63;;;-2.11;80.67
55373;BME280;41249;47.838;16.490;2022-12-10T06:33:44;98154.56;;;-2.06;80.89
55373;BME280;41249;47.838;16.490;2022-12-10T06:36:13;98159.22;;;-1.94;79.62
55373;BME280;41249;47.838;16.490;2022-12-10T06:38:41;98160.34;;;-1.95;80.18
55373;BME280;41249;47.838;16.490;2022-12-10T06:41:11;98153.44;;;-2.05;80.23
55373;BME280;41249;47.838;16.490;2022-12-10T06:43:38;98142.00;;;-2.10;80.41
55373;BME280;41249;47.838;16.490;2022-12-10T06:46:10;98145.06;;;-2.12;80.24
55373;BME280;41249;47.838;16.490;2022-12-10T06:48:37;98142.00;;;-2.10;80.26
55373;BME280;41249;47.838;16.490;2022-12-10T06:51:05;98144.41;;;-2.09;80.60
55373;BME280;41249;47.838;16.490;2022-12-10T06:53:33;98146.88;;;-2.04;80.99
55373;BME280;41249;47.838;16.490;2022-12-10T06:56:01;98141.53;;;-2.00;80.99
55373;BME280;41249;47.838;16.490;2022-12-10T06:58:29;98142.00;;;-2.10;79.57
55373;BME280;41249;47.838;16.490;2022-12-10T07:01:07;98142.69;;;-2.13;80.37
55373;BME280;41249;47.838;16.490;2022-12-10T07:03:34;98146.19;;;-2.13;79.65
55373;BME280;41249;47.838;16.490;2022-12-10T07:06:02;98126.03;;;-2.12;79.71
55373;BME280;41249;47.838;16.490;2022-12-10T07:08:29;98135.47;;;-2.21;79.53
55373;BME280;41249;47.838;16.490;2022-12-10T07:10:57;98125.38;;;-2.21;80.16
55373;BME280;41249;47.838;16.490;2022-12-10T07:13:24;98118.72;;;-2.23;79.84
55373;BME280;41249;47.838;16.490;2022-12-10T07:15:56;98116.66;;;-2.26;79.98
55373;BME280;41249;47.838;16.490;2022-12-10T07:18:23;98108.16;;;-2.25;80.09
55373;BME280;41249;47.838;16.490;2022-12-10T07:20:50;98097.72;;;-2.23;80.07
55373;BME280;41249;47.838;16.490;2022-12-10T07:23:17;98088.22;;;-2.17;80.08
55373;BME280;41249;47.838;16.490;2022-12-10T07:25:44;98096.34;;;-2.05;79.66
55373;BME280;41249;47.838;16.490;2022-12-10T07:28:10;98107.06;;;-1.84;80.13
55373;BME280;41249;47.838;16.490;2022-12-10T07:30:37;98115.47;;;-1.89;78.88
55373;BME280;41249;47.838;16.490;2022-12-10T07:33:04;98101.41;;;-1.91;78.76
55373;BME280;41249;47.838;16.490;2022-12-10T07:35:30;98100.47;;;-1.83;79.48
55373;BME280;41249;47.838;16.490;2022-12-10T07:37:57;98101.50;;;-1.88;79.20
55373;BME280;41249;47.838;16.490;2022-12-10T07:40:24;98097.44;;;-1.66;79.88
55373;BME280;41249;47.838;16.490;2022-12-10T07:42:50;98095.56;;;-1.50;79.84
55373;BME280;41249;47.838;16.490;2022-12-10T07:45:17;98098.22;;;-1.38;80.48
55373;BME280;41249;47.838;16.490;2022-12-10T07:47:43;98095.63;;;-1.34;80.69
55373;BME280;41249;47.838;16.490;2022-12-10T07:50:10;98087.28;;;-1.26;80.92
55373;BME280;41249;47.838;16.490;2022-12-10T07:52:37;98093.63;;;-1.22;81.38
55373;BME280;41249;47.838;16.490;2022-12-10T07:55:04;98102.56;;;-1.21;81.89
55373;BME280;41249;47.838;16.490;2022-12-10T07:57:31;98110.91;;;-1.30;80.25
55373;BME280;41249;47.838;16.490;2022-12-10T07:59:57;98090.78;;;-1.25;81.29
55373;BME280;41249;47.838;16.490;2022-12-10T08:02:24;98094.84;;;-1.19;81.49
55373;BME280;41249;47.838;16.490;2022-12-10T08:04:51;98088.75;;;-1.28;81.24
55373;BME280;41249;47.838;16.490;2022-12-10T08:07:18;98078.34;;;-1.26;81.29
55373;BME280;41249;47.838;16.490;2022-12-10T08:09:44;98088.25;;;-1.18;82.03
55373;BME280;41249;47.838;16.490;2022-12-10T08:12:11;98096.53;;;-1.15;82.32
55373;BME280;41249;47.838;16.490;2022-12-10T08:14:37;98090.81;;;-1.10;82.43
55373;BME280;41249;47.838;16.490;2022-12-10T08:17:04;98092.59;;;-1.01;82.38
55373;BME280;41249;47.838;16.490;2022-12-10T08:19:31;98091.94;;;-1.11;81.22
55373;BME280;41249;47.838;16.490;2022-12-10T08:21:57;98093.19;;;-0.92;82.08
55373;BME280;41249;47.838;16.490;2022-12-10T08:24:24;98081.44;;;-0.96;79.02
55373;BME280;41249;47.838;16.490;2022-12-10T08:26:51;98086.41;;;-0.98;80.77
55373;BME280;41249;47.838;16.490;2022-12-10T08:29:17;98092.41;;;-0.77;81.88
55373;BME280;41249;47.838;16.490;2022-12-10T08:31:44;98093.91;;;-0.64;81.81
55373;BME280;41249;47.838;16.490;2022-12-10T08:34:13;98080.97;;;-0.67;81.15
55373;BME280;41249;47.838;16.490;2022-12-10T08:36:40;98091.78;;;-0.55;82.18
55373;BME280;41249;47.838;16.490;2022-12-10T08:39:07;98095.63;;;-0.40;82.70
55373;BME280;41249;47.838;16.490;2022-12-10T08:41:33;98100.00;;;-0.36;82.66
55373;BME280;41249;47.838;16.490;2022-12-10T08:44:00;98099.69;;;-0.50;81.10
55373;BME280;41249;47.838;16.490;2022-12-10T08:46:27;98109.78;;;-0.66;80.30
55373;BME280;41249;47.838;16.490;2022-12-10T08:48:54;98108.41;;;-0.60;81.21
55373;BME280;41249;47.838;16.490;2022-12-10T08:51:21;98122.00;;;-0.45;81.48
55373;BME280;41249;47.838;16.490;2022-12-10T08:53:48;98113.63;;;-0.36;81.63
55373;BME280;41249;47.838;16.490;2022-12-10T08:56:15;98123.84;;;-0.49;79.65
55373;BME280;41249;47.838;16.490;2022-12-10T08:58:41;98123.78;;;-0.52;80.38
55373;BME280;41249;47.838;16.490;2022-12-10T09:01:14;98134.41;;;-0.47;81.07
55373;BME280;41249;47.838;16.490;2022-12-10T09:03:41;98126.94;;;-0.50;80.94
55373;BME280;41249;47.838;16.490;2022-12-10T09:06:12;98138.72;;;-0.46;81.12
55373;BME280;41249;47.838;16.490;2022-12-10T09:08:39;98135.97;;;-0.30;82.60
55373;BME280;41249;47.838;16.490;2022-12-10T09:11:10;98153.19;;;-0.26;82.32
55373;BME280;41249;47.838;16.490;2022-12-10T09:13:37;98160.66;;;-0.08;81.72
55373;BME280;41249;47.838;16.490;2022-12-10T09:16:05;98156.00;;;-0.07;80.62
55373;BME280;41249;47.838;16.490;2022-12-10T09:18:32;98149.47;;;-0.03;80.19
55373;BME280;41249;47.838;16.490;2022-12-10T09:20:58;98156.78;;;-0.07;80.15
55373;BME280;41249;47.838;16.490;2022-12-10T09:23:25;98150.28;;;-0.18;79.78
55373;BME280;41249;47.838;16.490;2022-12-10T09:25:52;98145.91;;;-0.38;79.15
55373;BME280;41249;47.838;16.490;2022-12-10T09:28:19;98138.84;;;-0.23;80.61
55373;BME280;41249;47.838;16.490;2022-12-10T09:30:55;98138.69;;;-0.15;80.12
55373;BME280;41249;47.838;16.490;2022-12-10T09:33:22;98148.00;;;-0.16;79.65
55373;BME280;41249;47.838;16.490;2022-12-10T09:35:48;98156.38;;;-0.24;79.39
55373;BME280;41249;47.838;16.490;2022-12-10T09:38:15;98165.97;;;-0.15;80.16
55373;BME280;41249;47.838;16.490;2022-12-10T09:41:01;98170.78;;;-0.24;80.65
55373;BME280;41249;47.838;16.490;2022-12-10T09:43:55;98169.31;;;-0.37;79.30
55373;BME280;41249;47.838;16.490;2022-12-10T09:46:53;98175.84;;;-0.57;73.05
55373;BME280;41249;47.838;16.490;2022-12-10T09:52:03;98156.31;;;-1.18;75.91
55373;BME280;41249;47.838;16.490;2022-12-10T09:54:34;98152.63;;;-1.26;76.81
55373;BME280;41249;47.838;16.490;2022-12-10T09:57:05;98157.31;;;-1.11;77.91
55373;BME280;41249;47.838;16.490;2022-12-10T09:59:38;98151.34;;;-1.00;76.91
55373;BME280;41249;47.838;16.490;2022-12-10T10:02:26;98166.50;;;-0.87;78.67
55373;BME280;41249;47.838;16.490;2022-12-10T10:05:25;98157.09;;;-0.90;78.01
55373;BME280;41249;47.838;16.490;2022-12-10T10:08:24;98138.63;;;-0.81;75.74
55373;BME280;41249;47.838;16.490;2022-12-10T10:10:52;98140.28;;;-0.76;77.78
55373;BME280;41249;47.838;16.490;2022-12-10T10:13:40;98137.66;;;-0.88;76.09
55373;BME280;41249;47.838;16.490;2022-12-10T10:19:05;98129.13;;;-1.02;74.92
55373;BME280;41249;47.838;16.490;2022-12-10T10:21:36;98125.28;;;-1.01;76.86
55373;BME280;41249;47.838;16.490;2022-12-10T10:24:04;98117.19;;;-0.82;77.26
55373;BME280;41249;47.838;16.490;2022-12-10T10:26:37;98108.66;;;-0.65;77.12
55373;BME280;41249;47.838;16.490;2022-12-10T10:29:09;98105.41;;;-0.55;77.05
55373;BME280;41249;47.838;16.490;2022-12-10T10:31:40;98100.28;;;-0.41;77.43
55373;BME280;41249;47.838;16.490;2022-12-10T10:34:24;98089.81;;;-0.39;77.40
55373;BME280;41249;47.838;16.490;2022-12-10T10:36:57;98090.84;;;-0.28;76.93
55373;BME280;41249;47.838;16.490;2022-12-10T10:39:29;98093.69;;;-0.40;77.98
55373;BME280;41249;47.838;16.490;2022-12-10T10:41:58;98071.28;;;-0.49;77.07
55373;BME280;41249;47.838;16.490;2022-12-10T10:44:28;98084.03;;;-0.53;75.66
55373;BME280;41249;47.838;16.490;2022-12-10T10:47:00;98072.19;;;-0.26;77.24
55373;BME280;41249;47.838;16.490;2022-12-10T10:49:28;98072.63;;;-0.24;76.50
55373;BME280;41249;47.838;16.490;2022-12-10T10:52:00;98063.00;;;-0.37;75.73
55373;BME280;41249;47.838;16.490;2022-12-10T10:54:49;98054.72;;;-0.40;74.29
55373;BME280;41249;47.838;16.490;2022-12-10T10:57:36;98048.84;;;-0.43;75.21
55373;BME280;41249;47.838;16.490;2022-12-10T11:00:10;98055.81;;;-0.26;76.29
55373;BME280;41249;47.838;16.490;2022-12-10T11:02:43;98049.50;;;-0.30;76.55
55373;BME280;41249;47.838;16.490;2022-12-10T11:05:25;98048.34;;;-0.29;76.37
55373;BME280;41249;47.838;16.490;2022-12-10T11:08:03;98038.75;;;-0.23;77.67
55373;BME280;41249;47.838;16.490;2022-12-10T11:10:31;98034.63;;;0.02;77.67
55373;BME280;41249;47.838;16.490;2022-12-10T11:13:06;98018.66;;;0.23;78.88
55373;BME280;41249;47.838;16.490;2022-12-10T11:15:41;98038.66;;;0.08;78.07
55373;BME280;41249;47.838;16.490;2022-12-10T11:18:30;98023.97;;;0.16;79.86
55373;BME280;41249;47.838;16.490;2022-12-10T11:23:31;98041.28;;;0.24;78.94
55373;BME280;41249;47.838;16.490;2022-12-10T11:39:17;98025.28;;;0.03;78.77
55373;BME280;41249;47.838;16.490;2022-12-10T11:47:40;98028.44;;;0.05;79.71
55373;BME280;41249;47.838;16.490;2022-12-10T11:50:23;98033.69;;;-0.05;77.41
55373;BME280;41249;47.838;16.490;2022-12-10T12:06:55;98026.56;;;-0.10;78.33
55373;BME280;41249;47.838;16.490;2022-12-10T12:09:56;98029.78;;;-0.23;76.55
55373;BME280;41249;47.838;16.490;2022-12-10T12:16:04;98028.88;;;-0.12;76.91
55373;BME280;41249;47.838;16.490;2022-12-10T12:18:42;98021.31;;;-0.18;78.08
55373;BME280;41249;47.838;16.490;2022-12-10T12:21:13;98020.59;;;-0.34;77.19
55373;BME280;41249;47.838;16.490;2022-12-10T12:24:03;98021.72;;;-0.35;77.04
55373;BME280;41249;47.838;16.490;2022-12-10T12:26:39;98039.03;;;-0.09;78.42
55373;BME280;41249;47.838;16.490;2022-12-10T12:29:14;98034.19;;;0.00;78.45
55373;BME280;41249;47.838;16.490;2022-12-10T12:31:47;98028.97;;;-0.24;76.06
55373;BME280;41249;47.838;16.490;2022-12-10T12:34:27;98018.66;;;-0.34;76.63
55373;BME280;41249;47.838;16.490;2022-12-10T12:36:55;98026.84;;;-0.34;77.80
55373;BME280;41249;47.838;16.490;2022-12-10T12:39:49;98028.09;;;-0.47;77.92
55373;BME280;41249;47.838;16.490;2022-12-10T12:42:31;98024.75;;;-0.56;77.55
55373;BME280;41249;47.838;16.490;2022-12-10T12:45:12;98027.41;;;-0.44;78.86
55373;BME280;41249;47.838;16.490;2022-12-10T12:47:58;98020.94;;;-0.36;79.34
55373;BME280;41249;47.838;16.490;2022-12-10T12:53:21;98028.09;;;-0.47;78.07
55373;BME280;41249;47.838;16.490;2022-12-10T13:01:15;98034.66;;;-0.67;77.05
55373;BME280;41249;47.838;16.490;2022-12-10T13:03:45;98026.38;;;-0.71;78.47
55373;BME280;41249;47.838;16.490;2022-12-10T13:06:21;98029.34;;;-0.60;79.39
55373;BME280;41249;47.838;16.490;2022-12-10T13:09:18;98032.78;;;-0.63;78.78
55373;BME280;41249;47.838;16.490;2022-12-10T13:20:24;98061.53;;;-0.50;79.78
55373;BME280;41249;47.838;16.490;2022-12-10T13:23:00;98054.75;;;-0.56;78.97
55373;BME280;41249;47.838;16.490;2022-12-10T13:25:54;98044.66;;;-0.71;78.25
55373;BME280;41249;47.838;16.490;2022-12-10T13:28:28;98047.13;;;-0.66;79.02
55373;BME280;41249;47.838;16.490;2022-12-10T13:36:24;98048.97;;;-0.55;79.32
55373;BME280;41249;47.838;16.490;2022-12-10T13:39:21;98048.81;;;-0.77;77.54
55373;BME280;41249;47.838;16.490;2022-12-10T13:45:24;98041.94;;;-0.71;77.49
55373;BME280;41249;47.838;16.490;2022-12-10T13:47:54;98047.66;;;-0.76;78.35
55373;BME280;41249;47.838;16.490;2022-12-10T13:54:21;98056.47;;;-0.83;76.66
55373;BME280;41249;47.838;16.490;2022-12-10T13:56:28;98065.88;;;-0.80;78.58
55373;BME280;41249;47.838;16.490;2022-12-10T14:07:26;98061.63;;;-0.78;78.13
55373;BME280;41249;47.838;16.490;2022-12-10T14:09:55;98066.72;;;-0.76;78.28
55373;BME280;41249;47.838;16.490;2022-12-10T14:12:32;98069.91;;;-0.90;77.17
55373;BME280;41249;47.838;16.490;2022-12-10T14:15:03;98055.69;;;-0.99;77.75
55373;BME280;41249;47.838;16.490;2022-12-10T14:17:34;98060.34;;;-0.99;78.27
55373;BME280;41249;47.838;16.490;2022-12-10T14:20:06;98058.16;;;-1.10;77.42
55373;BME280;41249;47.838;16.490;2022-12-10T14:23:02;98056.63;;;-1.23;75.85
55373;BME280;41249;47.838;16.490;2022-12-10T14:25:48;98052.06;;;-1.19;77.89
55373;BME280;41249;47.838;16.490;2022-12-10T14:28:17;98058.22;;;-1.22;76.76
55373;BME280;41249;47.838;16.490;2022-12-10T14:30:46;98062.19;;;-1.19;78.05
55373;BME280;41249;47.838;16.490;2022-12-10T14:33:16;98057.50;;;-1.19;77.62
55373;BME280;41249;47.838;16.490;2022-12-10T14:35:47;98055.84;;;-1.39;78.11
55373;BME280;41249;47.838;16.490;2022-12-10T14:38:24;98049.41;;;-1.31;77.74
55373;BME280;41249;47.838;16.490;2022-12-10T14:40:54;98051.78;;;-1.45;77.40
55373;BME280;41249;47.838;16.490;2022-12-10T14:43:23;98051.34;;;-1.47;78.04
55373;BME280;41249;47.838;16.490;2022-12-10T14:45:54;98042.56;;;-1.40;78.51
55373;BME280;41249;47.838;16.490;2022-12-10T14:48:23;98043.88;;;-1.50;77.91
55373;BME280;41249;47.838;16.490;2022-12-10T14:50:50;98051.06;;;-1.57;78.02
55373;BME280;41249;47.838;16.490;2022-12-10T14:53:26;98034.97;;;-1.62;78.46
55373;BME280;41249;47.838;16.490;2022-12-10T14:56:03;98048.69;;;-1.59;78.77
55373;BME280;41249;47.838;16.490;2022-12-10T15:01:16;98019.34;;;-1.65;78.40